sensor_id;sensor_type;location;lat;lon;timestamp;pressure;altitude;pressure_sealevel;temperature;humidity
13068;BME280;6600;51.362;6.686;2023-02-23T00:01:26;100822.34;;;10.44;100.00
13068;BME280;6600;51.362;6.686;2023-02-23T00:03:56;100825.63;;;10.46;100.00
13068;BME280;6600;51.362;6.686;2023-02-23T00:06:24;100826.25;;;10.42;100.00
13068;BME280;6600;51.362;6.686;2023-02-23T00:08:49;100828.50;;;10.45;100.00
13068;BME280;6600;51.362;6.686;2023-02-23T00:11:16;100821.31;;;10.45;100.00
13068;BME280;6600;51.362;6.686;2023-02-23T00:13:43;100814.91;;;10.46;100.00
13068;BME280;6600;51.362;6.686;2023-02-23T00:16:13;100825.22;;;10.49;100.00
13068;BME280;6600;51.362;6.686;2023-02-23T00:18:47;100823.16;;;10.51;100.00
13068;BME280;6600;51.362;6.686;2023-02-23T00:21:17;100816.56;;;10.47;100.00
13068;BME280;6600;51.362;6.686;2023-02-23T00:23:56;100812.44;;;10.45;100.00
13068;BME280;6600;51.362;6.686;2023-02-23T00:26:24;100817.41;;;10.41;100.00
13068;BME280;6600;51.362;6.686;2023-02-23T00:28:52;100819.47;;;10.39;100.00
13068;BME280;6600;51.362;6.686;2023-02-23T00:31:19;100816.19;;;10.37;100.00
13068;BME280;6600;51.362;6.686;2023-02-23T00:33:55;100819.47;;;10.39;100.00
13068;BME280;6600;51.362;6.686;2023-02-23T00:36:23;100817.81;;;10.38;100.00
13068;BME280;6600;51.362;6.686;2023-02-23T00:38:57;100813.09;;;10.40;100.00
13068;BME280;6600;51.362;6.686;2023-02-23T00:41:24;100812.03;;;10.41;100.00
13068;BME280;6600;51.362;6.686;2023-02-23T00:43:53;100807.91;;;10.45;100.00
13068;BME280;6600;51.362;6.686;2023-02-23T00:46:21;100815.34;;;10.43;100.00
13068;BME280;6600;51.362;6.686;2023-02-23T00:48:48;100817.78;;;10.45;100.00
13068;BME280;6600;51.362;6.686;2023-02-23T00:51:16;100817.00;;;10.44;100.00
13068;BME280;6600;51.362;6.686;2023-02-23T00:53:43;100808.97;;;10.44;100.00
13068;BME280;6600;51.362;6.686;2023-02-23T00:56:10;100815.75;;;10.47;100.00
13068;BME280;6600;51.362;6.686;2023-02-23T00:58:36;100813.25;;;10.45;100.00
13068;BME280;6600;51.362;6.686;2023-02-23T01:01:10;100806.06;;;10.46;100.00
13068;BME280;6600;51.362;6.686;2023-02-23T01:03:37;100807.09;;;10.45;100.00
13068;BME280;6600;51.362;6.686;2023-02-23T01:06:05;100810.59;;;10.45;100.00
13068;BME280;6600;51.362;6.686;2023-02-23T01:08:35;100805.66;;;10.42;100.00
13068;BME280;6600;51.362;6.686;2023-02-23T01:11:09;100810.19;;;10.42;100.00
13068;BME280;6600;51.362;6.686;2023-02-23T01:13:36;100796.19;;;10.40;100.00
13068;BME280;6600;51.362;6.686;2023-02-23T01:16:07;100803.41;;;10.39;100.00
13068;BME280;6600;51.362;6.686;2023-02-23T01:18:34;100805.06;;;10.40;100.00
13068;BME280;6600;51.362;6.686;2023-02-23T01:21:00;100802.16;;;10.42;100.00
13068;BME280;6600;51.362;6.686;2023-02-23T01:23:26;100803.41;;;10.39;100.00
13068;BME280;6600;51.362;6.686;2023-02-23T01:25:51;100814.72;;;10.41;100.00
13068;BME280;6600;51.362;6.686;2023-02-23T01:28:17;100809.59;;;10.40;100.00
13068;BME280;6600;51.362;6.686;2023-02-23T01:30:42;100814.13;;;10.39;100.00
13068;BME280;6600;51.362;6.686;2023-02-23T01:33:07;100809.78;;;10.38;100.00
13068;BME280;6600;51.362;6.686;2023-02-23T01:35:33;100810.63;;;10.39;100.00
13068;BME280;6600;51.362;6.686;2023-02-23T01:37:59;100805.25;;;10.39;100.00
13068;BME280;6600;51.362;6.686;2023-02-23T01:40:25;100803.41;;;10.39;100.00
13068;BME280;6600;51.362;6.686;2023-02-23T01:43:09;100805.50;;;10.37;100.00
13068;BME280;6600;51.362;6.686;2023-02-23T01:45:36;100806.72;;;10.35;100.00
13068;BME280;6600;51.362;6.686;2023-02-23T01:48:07;100804.25;;;10.33;100.00
13068;BME280;6600;51.362;6.686;2023-02-23T01:51:06;100811.66;;;10.31;100.00
13068;BME280;6600;51.362;6.686;2023-02-23T01:53:34;100800.34;;;10.29;100.00
13068;BME280;6600;51.362;6.686;2023-02-23T01:56:06;100800.34;;;10.29;100.00
13068;BME280;6600;51.362;6.686;2023-02-23T01:58:40;100801.38;;;10.28;100.00
13068;BME280;6600;51.362;6.686;2023-02-23T02:01:07;100803.47;;;10.26;100.00
13068;BME280;6600;51.362;6.686;2023-02-23T02:03:49;100799.75;;;10.27;100.00
13068;BME280;6600;51.362;6.686;2023-02-23T02:06:20;100804.06;;;10.28;100.00
13068;BME280;6600;51.362;6.686;2023-02-23T02:08:50;100800.56;;;10.28;100.00
13068;BME280;6600;51.362;6.686;2023-02-23T02:11:20;100800.56;;;10.28;100.00
13068;BME280;6600;51.362;6.686;2023-02-23T02:13:58;100805.91;;;10.28;100.00
13068;BME280;6600;51.362;6.686;2023-02-23T02:22:47;100799.34;;;10.30;100.00
13068;BME280;6600;51.362;6.686;2023-02-23T02:25:35;100802.22;;;10.29;100.00
13068;BME280;6600;51.362;6.686;2023-02-23T02:31:06;100805.13;;;10.27;100.00
13068;BME280;6600;51.362;6.686;2023-02-23T02:36:46;100804.72;;;10.24;100.00
13068;BME280;6600;51.362;6.686;2023-02-23T02:45:29;100797.69;;;10.23;100.00
13068;BME280;6600;51.362;6.686;2023-02-23T02:53:27;100796.88;;;10.22;100.00
13068;BME280;6600;51.362;6.686;2023-02-23T02:55:55;100793.16;;;10.23;100.00
13068;BME280;6600;51.362;6.686;2023-02-23T02:58:24;100796.88;;;10.22;100.00
13068;BME280;6600;51.362;6.686;2023-02-23T03:00:52;100800.38;;;10.23;100.00
13068;BME280;6600;51.362;6.686;2023-02-23T03:03:40;100803.09;;;10.16;100.00
13068;BME280;6600;51.362;6.686;2023-02-23T03:15:23;100794.63;;;10.19;100.00
13068;BME280;6600;51.362;6.686;2023-02-23T03:18:24;100804.31;;;10.20;100.00
13068;BME280;6600;51.362;6.686;2023-02-23T03:21:21;100795.66;;;10.18;100.00
13068;BME280;6600;51.362;6.686;2023-02-23T03:24:24;100794.41;;;10.14;100.00
13068;BME280;6600;51.362;6.686;2023-02-23T03:30:28;100802.03;;;10.17;100.00
13068;BME280;6600;51.362;6.686;2023-02-23T03:33:17;100801.00;;;10.18;100.00
13068;BME280;6600;51.362;6.686;2023-02-23T03:36:23;100809.66;;;10.13;100.00
13068;BME280;6600;51.362;6.686;2023-02-23T03:39:23;100805.13;;;10.14;100.00
13068;BME280;6600;51.362;6.686;2023-02-23T03:42:12;100812.13;;;10.15;100.00
13068;BME280;6600;51.362;6.686;2023-02-23T03:45:03;100813.56;;;10.18;100.00
13068;BME280;6600;51.362;6.686;2023-02-23T03:47:49;100806.78;;;10.08;100.00
13068;BME280;6600;51.362;6.686;2023-02-23T03:50:39;100809.66;;;10.07;100.00
13068;BME280;6600;51.362;6.686;2023-02-23T03:53:29;100813.78;;;10.03;100.00
13068;BME280;6600;51.362;6.686;2023-02-23T03:56:17;100817.06;;;10.05;100.00
13068;BME280;6600;51.362;6.686;2023-02-23T03:59:05;100814.59;;;10.03;100.00
13068;BME280;6600;51.362;6.686;2023-02-23T04:01:53;100813.78;;;10.03;100.00
13068;BME280;6600;51.362;6.686;2023-02-23T04:04:39;100817.72;;;9.94;100.00
13068;BME280;6600;51.362;6.686;2023-02-23T04:07:25;100813.41;;;9.93;100.00
13068;BME280;6600;51.362;6.686;2023-02-23T04:10:09;100818.53;;;9.94;100.00
13068;BME280;6600;51.362;6.686;2023-02-23T04:15:49;100819.53;;;10.00;100.00
13068;BME280;6600;51.362;6.686;2023-02-23T04:18:21;100819.97;;;9.97;100.00
13068;BME280;6600;51.362;6.686;2023-02-23T04:20:47;100821.81;;;9.96;100.00
13068;BME280;6600;51.362;6.686;2023-02-23T04:23:12;100824.50;;;9.90;100.00
13068;BME280;6600;51.362;6.686;2023-02-23T04:25:38;100829.06;;;9.89;100.00
13068;BME280;6600;51.362;6.686;2023-02-23T04:28:03;100818.75;;;9.86;100.00
13068;BME280;6600;51.362;6.686;2023-02-23T04:30:29;100834.81;;;9.86;100.00
13068;BME280;6600;51.362;6.686;2023-02-23T04:32:55;100828.63;;;9.92;100.00
13068;BME280;6600;51.362;6.686;2023-02-23T04:35:21;100826.78;;;9.93;100.00
13068;BME280;6600;51.362;6.686;2023-02-23T04:37:46;100836.44;;;9.94;100.00
13068;BME280;6600;51.362;6.686;2023-02-23T04:40:12;100833.16;;;9.92;100.00
13068;BME280;6600;51.362;6.686;2023-02-23T04:42:38;100825.56;;;9.89;100.00
13068;BME280;6600;51.362;6.686;2023-02-23T04:45:05;100835.22;;;9.90;100.00
13068;BME280;6600;51.362;6.686;2023-02-23T04:47:30;100831.94;;;9.88;100.00
13068;BME280;6600;51.362;6.686;2023-02-23T04:49:56;100840.97;;;9.87;100.00
13068;BME280;6600;51.362;6.686;2023-02-23T04:52:21;100831.94;;;9.88;100.00
13068;BME280;6600;51.362;6.686;2023-02-23T04:54:46;100828.22;;;9.89;100.00
13068;BME280;6600;51.362;6.686;2023-02-23T04:57:12;100831.75;;;9.89;100.00
13068;BME280;6600;51.362;6.686;2023-02-23T04:59:37;100828.22;;;9.89;100.00
13068;BME280;6600;51.362;6.686;2023-02-23T05:02:03;100827.81;;;9.85;100.00
13068;BME280;6600;51.362;6.686;2023-02-23T05:04:28;100834.81;;;9.86;100.00
13068;BME280;6600;51.362;6.686;2023-02-23T05:06:54;100828.66;;;9.86;100.00
13068;BME280;6600;51.362;6.686;2023-02-23T05:09:19;100838.94;;;9.89;100.00
13068;BME280;6600;51.362;6.686;2023-02-23T05:11:45;100830.69;;;9.84;100.00
13068;BME280;6600;51.362;6.686;2023-02-23T05:14:10;100834.00;;;9.86;100.00
13068;BME280;6600;51.362;6.686;2023-02-23T05:16:37;100842.41;;;9.83;100.00
13068;BME280;6600;51.362;6.686;2023-02-23T05:19:02;100837.28;;;9.81;100.00
13068;BME280;6600;51.362;6.686;2023-02-23T05:21:27;100844.91;;;9.84;100.00
13068;BME280;6600;51.362;6.686;2023-02-23T05:23:53;100839.34;;;9.86;100.00
13068;BME280;6600;51.362;6.686;2023-02-23T05:26:18;100840.97;;;9.87;100.00
13068;BME280;6600;51.362;6.686;2023-02-23T05:28:44;100840.56;;;9.90;100.00
13068;BME280;6600;51.362;6.686;2023-02-23T05:31:10;100843.25;;;9.90;100.00
13068;BME280;6600;51.362;6.686;2023-02-23T05:33:36;100849.66;;;9.89;100.00
13068;BME280;6600;51.362;6.686;2023-02-23T05:36:12;100845.50;;;9.86;100.00
13068;BME280;6600;51.362;6.686;2023-02-23T05:38:39;100841.63;;;9.89;100.00
13068;BME280;6600;51.362;6.686;2023-02-23T05:41:10;100837.88;;;9.90;100.00
13068;BME280;6600;51.362;6.686;2023-02-23T05:43:35;100842.63;;;9.88;100.00
13068;BME280;6600;51.362;6.686;2023-02-23T05:46:08;100845.13;;;9.89;100.00
13068;BME280;6600;51.362;6.686;2023-02-23T05:48:33;100840.56;;;9.83;100.00
13068;BME280;6600;51.362;6.686;2023-02-23T05:51:09;100850.06;;;9.86;100.00
13068;BME280;6600;51.362;6.686;2023-02-23T05:53:34;100852.75;;;9.86;100.00
13068;BME280;6600;51.362;6.686;2023-02-23T05:56:01;100848.41;;;9.85;100.00
13068;BME280;6600;51.362;6.686;2023-02-23T05:58:27;100850.06;;;9.86;100.00
13068;BME280;6600;51.362;6.686;2023-02-23T06:00:52;100853.75;;;9.85;100.00
13068;BME280;6600;51.362;6.686;2023-02-23T06:03:18;100853.75;;;9.85;100.00
13068;BME280;6600;51.362;6.686;2023-02-23T06:05:54;100862.81;;;9.84;100.00
13068;BME280;6600;51.362;6.686;2023-02-23T06:08:20;100857.69;;;9.82;100.00
13068;BME280;6600;51.362;6.686;2023-02-23T06:10:46;100862.81;;;9.84;100.00
13068;BME280;6600;51.362;6.686;2023-02-23T06:13:12;100853.75;;;9.85;100.00
13068;BME280;6600;51.362;6.686;2023-02-23T06:15:38;100858.09;;;9.86;100.00
13068;BME280;6600;51.362;6.686;2023-02-23T06:18:04;100870.00;;;9.90;100.00
13068;BME280;6600;51.362;6.686;2023-02-23T06:20:30;100861.59;;;9.93;100.00
13068;BME280;6600;51.362;6.686;2023-02-23T06:22:55;100857.66;;;9.95;100.00
13068;BME280;6600;51.362;6.686;2023-02-23T06:25:22;100874.75;;;10.01;100.00
13068;BME280;6600;51.362;6.686;2023-02-23T06:27:47;100864.03;;;10.01;100.00
13068;BME280;6600;51.362;6.686;2023-02-23T06:30:12;100871.03;;;10.02;100.00
13068;BME280;6600;51.362;6.686;2023-02-23T06:32:38;100876.16;;;10.03;100.00
13068;BME280;6600;51.362;6.686;2023-02-23T06:35:04;100882.34;;;10.04;100.00
13068;BME280;6600;51.362;6.686;2023-02-23T06:37:31;100882.97;;;10.06;100.00
13068;BME280;6600;51.362;6.686;2023-02-23T06:39:56;100884.00;;;10.11;100.00
13068;BME280;6600;51.362;6.686;2023-02-23T06:42:22;100889.97;;;10.07;100.00
13068;BME280;6600;51.362;6.686;2023-02-23T06:44:47;100893.88;;;9.98;100.00
13068;BME280;6600;51.362;6.686;2023-02-23T06:47:12;100896.56;;;9.98;100.00
13068;BME280;6600;51.362;6.686;2023-02-23T06:49:38;100897.19;;;9.93;100.00
13068;BME280;6600;51.362;6.686;2023-02-23T06:52:05;100897.41;;;9.85;100.00
13068;BME280;6600;51.362;6.686;2023-02-23T06:54:30;100901.53;;;9.61;100.00
13068;BME280;6600;51.362;6.686;2023-02-23T06:56:58;100910.97;;;9.44;100.00
13068;BME280;6600;51.362;6.686;2023-02-23T06:59:24;100904.38;;;9.40;100.00
13068;BME280;6600;51.362;6.686;2023-02-23T07:01:49;100906.81;;;9.35;100.00
13068;BME280;6600;51.362;6.686;2023-02-23T07:04:14;100906.81;;;9.29;100.00
13068;BME280;6600;51.362;6.686;2023-02-23T07:06:39;100907.03;;;9.34;100.00
13068;BME280;6600;51.362;6.686;2023-02-23T07:09:05;100909.69;;;9.27;100.00
13068;BME280;6600;51.362;6.686;2023-02-23T07:11:30;100914.63;;;9.30;100.00
13068;BME280;6600;51.362;6.686;2023-02-23T07:13:59;100926.53;;;9.21;100.00
13068;BME280;6600;51.362;6.686;2023-02-23T07:16:26;100923.25;;;9.32;100.00
13068;BME280;6600;51.362;6.686;2023-02-23T07:18:53;100925.31;;;9.24;100.00
13068;BME280;6600;51.362;6.686;2023-02-23T07:21:18;100926.31;;;9.16;100.00
13068;BME280;6600;51.362;6.686;2023-02-23T07:23:44;100924.50;;;9.23;100.00
13068;BME280;6600;51.362;6.686;2023-02-23T07:26:09;100932.69;;;9.22;100.00
13068;BME280;6600;51.362;6.686;2023-02-23T07:28:40;100934.34;;;9.16;100.00
13068;BME280;6600;51.362;6.686;2023-02-23T07:31:06;100938.03;;;9.15;100.00
13068;BME280;6600;51.362;6.686;2023-02-23T07:33:31;100932.22;;;9.05;100.00
13068;BME280;6600;51.362;6.686;2023-02-23T07:35:56;100940.09;;;9.13;100.00
13068;BME280;6600;51.362;6.686;2023-02-23T07:38:22;100942.53;;;9.08;100.00
13068;BME280;6600;51.362;6.686;2023-02-23T07:40:49;100941.28;;;9.04;100.00
13068;BME280;6600;51.362;6.686;2023-02-23T07:43:14;100944.78;;;9.11;100.00
13068;BME280;6600;51.362;6.686;2023-02-23T07:45:40;100948.69;;;9.02;100.00
13068;BME280;6600;51.362;6.686;2023-02-23T07:48:06;100951.97;;;9.10;100.00
13068;BME280;6600;51.362;6.686;2023-02-23T07:50:31;100957.31;;;9.04;100.00
13068;BME280;6600;51.362;6.686;2023-02-23T07:52:57;100953.16;;;8.95;100.00
13068;BME280;6600;51.362;6.686;2023-02-23T07:55:22;100968.44;;;9.14;100.00
13068;BME280;6600;51.362;6.686;2023-02-23T07:57:47;100961.06;;;9.16;100.00
13068;BME280;6600;51.362;6.686;2023-02-23T08:00:13;100958.59;;;9.21;100.00
13068;BME280;6600;51.362;6.686;2023-02-23T08:02:39;100957.34;;;9.17;100.00
13068;BME280;6600;51.362;6.686;2023-02-23T08:05:04;100964.34;;;9.18;100.00
13068;BME280;6600;51.362;6.686;2023-02-23T08:07:31;100958.59;;;9.21;100.00
13068;BME280;6600;51.362;6.686;2023-02-23T08:09:57;100965.22;;;9.25;100.00
13068;BME280;6600;51.362;6.686;2023-02-23T08:12:22;100968.47;;;9.21;100.00
13068;BME280;6600;51.362;6.686;2023-02-23T08:14:48;100962.13;;;9.35;100.00
13068;BME280;6600;51.362;6.686;2023-02-23T08:17:13;100964.84;;;9.41;100.00
13068;BME280;6600;51.362;6.686;2023-02-23T08:19:39;100971.41;;;9.32;100.00
13068;BME280;6600;51.362;6.686;2023-02-23T08:22:04;100975.91;;;9.25;100.00
13068;BME280;6600;51.362;6.686;2023-02-23T08:24:30;100975.28;;;9.23;100.00
13068;BME280;6600;51.362;6.686;2023-02-23T08:27:00;100974.72;;;9.34;100.00
13068;BME280;6600;51.362;6.686;2023-02-23T08:29:26;100979.25;;;9.40;100.00
13068;BME280;6600;51.362;6.686;2023-02-23T08:31:52;100985.00;;;9.37;100.00
13068;BME280;6600;51.362;6.686;2023-02-23T08:34:19;100989.53;;;9.43;100.00
13068;BME280;6600;51.362;6.686;2023-02-23T08:36:45;100988.13;;;9.47;100.00
13068;BME280;6600;51.362;6.686;2023-02-23T08:39:11;100989.13;;;9.46;100.00
13068;BME280;6600;51.362;6.686;2023-02-23T08:41:38;100994.50;;;9.46;100.00
13068;BME280;6600;51.362;6.686;2023-02-23T08:44:03;100990.16;;;9.52;100.00
13068;BME280;6600;51.362;6.686;2023-02-23T08:46:29;100994.50;;;9.46;100.00
13068;BME280;6600;51.362;6.686;2023-02-23T08:48:55;100999.41;;;9.36;100.00
13068;BME280;6600;51.362;6.686;2023-02-23T08:51:20;100999.22;;;9.44;100.00
13068;BME280;6600;51.362;6.686;2023-02-23T08:53:46;100996.56;;;9.44;100.00
13068;BME280;6600;51.362;6.686;2023-02-23T08:56:11;101001.91;;;9.44;100.00
13068;BME280;6600;51.362;6.686;2023-02-23T08:58:37;101004.78;;;9.49;100.00
13068;BME280;6600;51.362;6.686;2023-02-23T09:01:04;101002.50;;;9.46;100.00
13068;BME280;6600;51.362;6.686;2023-02-23T09:03:31;101003.94;;;9.42;100.00
13068;BME280;6600;51.362;6.686;2023-02-23T09:06:06;101002.06;;;9.36;100.00
13068;BME280;6600;51.362;6.686;2023-02-23T09:08:31;101011.31;;;9.27;100.00
13068;BME280;6600;51.362;6.686;2023-02-23T09:10:57;101004.75;;;9.36;100.00
13068;BME280;6600;51.362;6.686;2023-02-23T09:13:22;101003.09;;;9.35;100.00
13068;BME280;6600;51.362;6.686;2023-02-23T09:15:47;101016.28;;;9.43;100.00
13068;BME280;6600;51.362;6.686;2023-02-23T09:18:13;101013.81;;;9.48;100.00
13068;BME280;6600;51.362;6.686;2023-02-23T09:20:43;101019.16;;;9.48;100.00
13068;BME280;6600;51.362;6.686;2023-02-23T09:23:09;101024.94;;;9.52;100.00
13068;BME280;6600;51.362;6.686;2023-02-23T09:25:41;101013.63;;;9.50;100.00
13068;BME280;6600;51.362;6.686;2023-02-23T09:28:10;101013.22;;;9.46;100.00
13068;BME280;6600;51.362;6.686;2023-02-23T09:30:36;101026.13;;;9.36;100.00
13068;BME280;6600;51.362;6.686;2023-02-23T09:33:01;101019.53;;;9.32;100.00
13068;BME280;6600;51.362;6.686;2023-02-23T09:35:27;101030.22;;;9.32;100.00
13068;BME280;6600;51.362;6.686;2023-02-23T09:37:54;101023.22;;;9.31;100.00
13068;BME280;6600;51.362;6.686;2023-02-23T09:40:25;101023.22;;;9.31;100.00
13068;BME280;6600;51.362;6.686;2023-02-23T09:45:41;101035.97;;;9.29;100.00
13068;BME280;6600;51.362;6.686;2023-02-23T09:48:21;101040.94;;;9.32;100.00
13068;BME280;6600;51.362;6.686;2023-02-23T09:50:50;101045.81;;;9.22;100.00
13068;BME280;6600;51.362;6.686;2023-02-23T09:53:34;101051.22;;;9.35;100.00
13068;BME280;6600;51.362;6.686;2023-02-23T09:56:05;101055.56;;;9.36;100.00
13068;BME280;6600;51.362;6.686;2023-02-23T09:58:34;101063.53;;;9.23;100.00
13068;BME280;6600;51.362;6.686;2023-02-23T10:01:26;101063.97;;;9.33;100.00
13068;BME280;6600;51.362;6.686;2023-02-23T10:04:02;101057.38;;;9.29;100.00
13068;BME280;6600;51.362;6.686;2023-02-23T10:06:32;101071.31;;;9.25;100.00
13068;BME280;6600;51.362;6.686;2023-02-23T10:11:51;101072.16;;;9.25;100.00
13068;BME280;6600;51.362;6.686;2023-02-23T10:20:12;101079.56;;;9.23;100.00
13068;BME280;6600;51.362;6.686;2023-02-23T10:22:39;101084.47;;;9.20;100.00
13068;BME280;6600;51.362;6.686;2023-02-23T10:25:11;101082.38;;;9.15;100.00
13068;BME280;6600;51.362;6.686;2023-02-23T10:27:40;101084.06;;;9.16;100.00
13068;BME280;6600;51.362;6.686;2023-02-23T10:35:30;101086.84;;;9.42;100.00
13068;BME280;6600;51.362;6.686;2023-02-23T10:37:56;101085.44;;;9.46;100.00
13068;BME280;6600;51.362;6.686;2023-02-23T10:40:25;101083.44;;;9.61;100.00
13068;BME280;6600;51.362;6.686;2023-02-23T10:42:53;101090.03;;;9.65;100.00
13068;BME280;6600;51.362;6.686;2023-02-23T10:45:22;101086.78;;;9.77;100.00
13068;BME280;6600;51.362;6.686;2023-02-23T10:47:55;101091.94;;;9.78;100.00
13068;BME280;6600;51.362;6.686;2023-02-23T10:50:22;101090.69;;;9.74;100.00
13068;BME280;6600;51.362;6.686;2023-02-23T10:52:52;101082.84;;;9.73;100.00
13068;BME280;6600;51.362;6.686;2023-02-23T10:55:27;101087.19;;;9.74;100.00
13068;BME280;6600;51.362;6.686;2023-02-23T10:58:13;101086.31;;;9.67;100.00
13068;BME280;6600;51.362;6.686;2023-02-23T11:03:41;101093.91;;;9.56;100.00
13068;BME280;6600;51.362;6.686;2023-02-23T11:06:30;101094.06;;;9.48;100.00
13068;BME280;6600;51.362;6.686;2023-02-23T11:08:55;101094.47;;;9.45;100.00
13068;BME280;6600;51.362;6.686;2023-02-23T11:11:24;101098.75;;;9.33;100.00
13068;BME280;6600;51.362;6.686;2023-02-23T11:13:50;101092.97;;;9.30;100.00
13068;BME280;6600;51.362;6.686;2023-02-23T11:21:31;101107.63;;;9.40;100.00
13068;BME280;6600;51.362;6.686;2023-02-23T11:24:02;101104.75;;;9.48;100.00
13068;BME280;6600;51.362;6.686;2023-02-23T11:26:36;101100.69;;;9.59;100.00
13068;BME280;6600;51.362;6.686;2023-02-23T11:29:36;101099.09;;;9.64;100.00
13068;BME280;6600;51.362;6.686;2023-02-23T11:32:16;101103.13;;;9.47;100.00
13068;BME280;6600;51.362;6.686;2023-02-23T11:34:43;101094.88;;;9.42;100.00
13068;BME280;6600;51.362;6.686;2023-02-23T11:39:50;101093.59;;;9.38;100.00
13068;BME280;6600;51.362;6.686;2023-02-23T11:42:21;101092.78;;;9.38;100.00
13068;BME280;6600;51.362;6.686;2023-02-23T11:45:01;101094.25;;;9.40;100.00
13068;BME280;6600;51.362;6.686;2023-02-23T11:47:28;101094.72;;;9.50;100.00
13068;BME280;6600;51.362;6.686;2023-02-23T11:49:55;101091.59;;;9.40;100.00
13068;BME280;6600;51.362;6.686;2023-02-23T11:52:22;101093.84;;;9.43;100.00
13068;BME280;6600;51.362;6.686;2023-02-23T11:54:53;101085.78;;;9.30;100.00
13068;BME280;6600;51.362;6.686;2023-02-23T11:57:23;101088.25;;;9.38;100.00
13068;BME280;6600;51.362;6.686;2023-02-23T11:59:50;101087.50;;;9.44;100.00
13068;BME280;6600;51.362;6.686;2023-02-23T12:02:25;101089.53;;;9.49;100.00
13068;BME280;6600;51.362;6.686;2023-02-23T12:05:00;101089.16;;;9.52;100.00
13068;BME280;6600;51.362;6.686;2023-02-23T12:07:35;101088.34;;;9.51;100.00
13068;BME280;6600;51.362;6.686;2023-02-23T12:12:49;101077.69;;;9.64;100.00
13068;BME280;6600;51.362;6.686;2023-02-23T12:17:57;101067.41;;;9.61;100.00
13068;BME280;6600;51.362;6.686;2023-02-23T12:20:28;101072.94;;;9.67;100.00
13068;BME280;6600;51.362;6.686;2023-02-23T12:22:58;101072.13;;;9.73;100.00
13068;BME280;6600;51.362;6.686;2023-02-23T12:25:34;101071.13;;;9.74;100.00
13068;BME280;6600;51.362;6.686;2023-02-23T12:28:21;101065.81;;;9.87;100.00
13068;BME280;6600;51.362;6.686;2023-02-23T12:33:43;101081.41;;;9.77;100.00
13068;BME280;6600;51.362;6.686;2023-02-23T12:39:30;101079.81;;;9.89;100.00
13068;BME280;6600;51.362;6.686;2023-02-23T12:42:13;101079.00;;;9.95;100.00
13068;BME280;6600;51.362;6.686;2023-02-23T12:44:51;101080.25;;;9.99;100.00
13068;BME280;6600;51.362;6.686;2023-02-23T12:50:25;101078.75;;;9.77;100.00
13068;BME280;6600;51.362;6.686;2023-02-23T13:02:20;101079.72;;;9.62;100.00
13068;BME280;6600;51.362;6.686;2023-02-23T13:05:09;101085.88;;;9.56;100.00
13068;BME280;6600;51.362;6.686;2023-02-23T13:10:53;101075.22;;;9.70;100.00
13068;BME280;6600;51.362;6.686;2023-02-23T13:13:41;101083.47;;;9.68;100.00
13068;BME280;6600;51.362;6.686;2023-02-23T13:16:20;101080.59;;;9.83;100.00
13068;BME280;6600;51.362;6.686;2023-02-23T13:18:49;101082.28;;;9.84;100.00
13068;BME280;6600;51.362;6.686;2023-02-23T13:21:29;101081.44;;;9.90;100.00
13068;BME280;6600;51.362;6.686;2023-02-23T13:24:06;101085.19;;;10.02;100.00
13068;BME280;6600;51.362;6.686;2023-02-23T13:26:46;101079.81;;;9.89;100.00
13068;BME280;6600;51.362;6.686;2023-02-23T13:31:40;101083.94;;;9.91;100.00
13068;BME280;6600;51.362;6.686;2023-02-23T13:34:10;101083.50;;;9.75;100.00
13068;BME280;6600;51.362;6.686;2023-02-23T13:36:38;101080.22;;;9.86;100.00
13068;BME280;6600;51.362;6.686;2023-02-23T13:42:40;101083.47;;;9.68;100.00
13068;BME280;6600;51.362;6.686;2023-02-23T13:50:41;101076.66;;;9.65;100.00
13068;BME280;6600;51.362;6.686;2023-02-23T13:56:30;101089.66;;;9.69;100.00
13068;BME280;6600;51.362;6.686;2023-02-23T13:59:07;101096.16;;;9.53;100.00
13068;BME280;6600;51.362;6.686;2023-02-23T14:01:44;101093.28;;;9.48;100.00
13068;BME280;6600;51.362;6.686;2023-02-23T14:04:21;101091.22;;;9.56;100.00
13068;BME280;6600;51.362;6.686;2023-02-23T14:07:01;101089.94;;;9.46;100.00
13068;BME280;6600;51.362;6.686;2023-02-23T14:09:31;101089.34;;;9.50;100.00
13068;BME280;6600;51.362;6.686;2023-02-23T14:20:02;101096.31;;;9.45;100.00
13068;BME280;6600;51.362;6.686;2023-02-23T14:22:30;101098.66;;;9.54;100.00
13068;BME280;6600;51.362;6.686;2023-02-23T14:41:40;101100.69;;;9.52;100.00
13068;BME280;6600;51.362;6.686;2023-02-23T14:44:13;101100.25;;;9.49;100.00
13068;BME280;6600;51.362;6.686;2023-02-23T14:46:55;101099.22;;;9.50;100.00
13068;BME280;6600;51.362;6.686;2023-02-23T14:49:25;101096.13;;;9.46;100.00
13068;BME280;6600;51.362;6.686;2023-02-23T14:51:55;101086.66;;;9.44;100.00
13068;BME280;6600;51.362;6.686;2023-02-23T14:54:31;101096.75;;;9.48;100.00
13068;BME280;6600;51.362;6.686;2023-02-23T14:56:59;101096.16;;;9.53;100.00
13068;BME280;6600;51.362;6.686;2023-02-23T14:59:36;101090.03;;;9.65;100.00
13068;BME280;6600;51.362;6.686;2023-02-23T15:02:08;101087.34;;;9.65;100.00
13068;BME280;6600;51.362;6.686;2023-02-23T15:04:34;101095.44;;;9.72;100.00
13068;BME280;6600;51.362;6.686;2023-02-23T15:07:04;101097.88;;;9.67;100.00
13068;BME280;6600;51.362;6.686;2023-02-23T15:09:40;101092.94;;;9.71;100.00
13068;BME280;6600;51.362;6.686;2023-02-23T15:12:26;101102.81;;;9.77;100.00
13068;BME280;6600;51.362;6.686;2023-02-23T15:14:56;101104.91;;;9.75;100.00
13068;BME280;6600;51.362;6.686;2023-02-23T15:17:24;101111.06;;;9.69;100.00
13068;BME280;6600;51.362;6.686;2023-02-23T15:19:55;101116.22;;;9.77;100.00
13068;BME280;6600;51.362;6.686;2023-02-23T15:22:32;101118.84;;;9.63;100.00
13068;BME280;6600;51.362;6.686;2023-02-23T15:25:00;101118.88;;;9.70;100.00
13068;BME280;6600;51.362;6.686;2023-02-23T15:27:36;101107.94;;;9.65;100.00
13068;BME280;6600;51.362;6.686;2023-02-23T15:30:28;101108.16;;;9.70;100.00